createdAt,value
2023-05-08T03:30:20.110Z,1.7
2023-05-08T03:45:20.133Z,7.3
2023-05-08T04:02:40.146Z,18.3
2023-05-08T04:15:19.978Z,30.6
2023-05-08T04:30:20.371Z,44.4
2023-05-08T04:45:19.314Z,59.6
2023-05-08T05:00:20.204Z,69.3
2023-05-08T05:15:24.725Z,74.1
2023-05-08T05:30:19.472Z,78.5
2023-05-08T05:45:19.739Z,80.9
2023-05-08T06:00:20.360Z,82.9
2023-05-08T06:15:20.153Z,85.8
2023-05-08T06:30:20.057Z,90.9
2023-05-08T06:45:20.108Z,100.1
2023-05-08T07:00:19.515Z,108.8
2023-05-08T07:30:19.535Z,125.7
2023-05-08T07:45:19.597Z,139.4
2023-05-08T08:00:19.740Z,172.4
2023-05-08T08:15:19.906Z,185.1
2023-05-08T08:30:19.830Z,199
2023-05-08T08:45:20.237Z,198
2023-05-08T09:00:19.558Z,186.4
2023-05-08T09:15:19.422Z,202
2023-05-08T09:30:20.129Z,163.1
2023-05-08T09:45:30.651Z,144.1
2023-05-08T10:00:38.364Z,156.3
2023-05-08T10:15:20.282Z,148.9
2023-05-08T10:30:19.805Z,173.2
2023-05-08T10:45:19.946Z,159.3
2023-05-08T11:00:20.193Z,177.5
2023-05-08T11:15:19.665Z,175.2
2023-05-08T11:30:20.408Z,172.2
2023-05-08T11:45:20.044Z,176.5
2023-05-08T12:00:21.295Z,209.1
2023-05-08T12:15:19.879Z,249.9
2023-05-08T12:30:20.515Z,348.6
2023-05-08T12:45:19.292Z,389.4
2023-05-08T13:00:19.784Z,539.8
2023-05-08T13:15:19.788Z,506.4
2023-05-08T13:30:19.858Z,450
2023-05-08T13:45:19.885Z,500.1
2023-05-08T14:00:20.013Z,861.4
2023-05-08T14:15:20.171Z,1414.2
2023-05-08T14:30:19.879Z,1424.8
2023-05-08T14:45:19.704Z,965
2023-05-08T15:00:19.960Z,795.8
2023-05-08T15:15:19.756Z,757.9
2023-05-08T15:30:19.397Z,720.2
2023-05-08T15:45:19.611Z,655.5
2023-05-08T16:00:20.236Z,581.7
2023-05-08T16:15:19.401Z,514.2
2023-05-08T16:30:20.324Z,494.7
2023-05-08T16:45:19.791Z,511.4
2023-05-08T17:00:19.764Z,503.6
2023-05-08T17:15:20.010Z,523.5
2023-05-08T17:30:19.342Z,492.2
2023-05-08T17:45:19.927Z,525.5
2023-05-08T18:00:20.435Z,126.4
2023-05-08T18:15:20.449Z,70.1
2023-05-08T18:30:20.315Z,36.5
2023-05-08T18:45:20.181Z,17.3
2023-05-08T19:00:20.016Z,5.9
2023-05-08T19:15:20.023Z,1.5
2023-05-08T19:30:19.883Z,1
2023-05-08T19:45:19.782Z,1
2023-05-08T20:00:20.218Z,1
2023-05-08T20:15:39.940Z,1
2023-05-08T21:30:20.873Z,7.5
2023-05-08T21:45:20.984Z,7.5
2023-05-08T22:00:20.304Z,7.5
2023-05-08T22:15:29.889Z,7.5
